SBA weather

Santa Barbara Municipal Airport
Santa Barbara, California, United States

Public forecast

Using degrees Fahrenheit for public forecast. Weather courtesy of forecast.io.

METAR (pilot weather report)

Retrieved 2019/07/24 07:53 UTC (20 minutes ago):

KSBA 240753Z AUTO 08004KT 9SM CLR 18/16 A2994 RMK AO2 SLP138 T01830156 402780150

TAF (pilot weather forecast)

Retrieved 2019/07/24 06:33 UTC (2 hours ago):

TAF KSBA 240530Z 2406/2506 VRB03KT P6SM SCT150 FM242000 23008KT P6SM SCT060 BKN150 FM242300 27008KT P6SM SCT060 BKN150 FM250300 VRB03KT P6SM BKN150